createdAt,value
2019-03-30T00:01:12.498Z,101182.60
2019-03-30T00:03:45.331Z,101177.77
2019-03-30T00:06:18.029Z,101185.66
2019-03-30T00:08:50.598Z,101188.74
2019-03-30T00:11:23.400Z,101187.89
2019-03-30T00:13:56.038Z,101178.73
2019-03-30T00:16:28.618Z,101178.30
2019-03-30T00:19:01.171Z,101180.89
2019-03-30T00:21:33.668Z,101178.27
2019-03-30T00:24:06.338Z,101176.95
2019-03-30T00:26:38.840Z,101176.11
2019-03-30T00:29:11.387Z,101177.42
2019-03-30T00:31:44.050Z,101174.86
2019-03-30T00:34:16.856Z,101171.38
2019-03-30T00:36:49.428Z,101175.33
2019-03-30T00:39:21.977Z,101181.00
2019-03-30T00:41:54.487Z,101175.36
2019-03-30T00:44:26.878Z,101171.00
2019-03-30T00:46:59.567Z,101167.09
2019-03-30T00:49:32.457Z,101167.53
2019-03-30T00:52:05.356Z,101168.91
2019-03-30T00:54:38.143Z,101167.62
2019-03-30T00:57:10.657Z,101159.42
2019-03-30T00:59:43.345Z,101162.47
2019-03-30T01:02:16.157Z,101158.55
2019-03-30T01:04:48.998Z,101155.52
2019-03-30T01:07:21.857Z,101153.77
2019-03-30T01:09:57.817Z,101158.13
2019-03-30T01:12:31.048Z,101159.85
2019-03-30T01:15:04.216Z,101162.06
2019-03-30T01:17:37.990Z,101160.34
2019-03-30T01:20:10.976Z,101164.27
2019-03-30T01:22:43.817Z,101154.27
2019-03-30T01:25:16.656Z,101156.07
2019-03-30T01:27:49.497Z,101155.17
2019-03-30T01:30:23.681Z,101149.09
2019-03-30T01:33:03.860Z,101151.24
2019-03-30T01:35:36.967Z,101153.45
2019-03-30T01:38:10.017Z,101155.17
2019-03-30T01:40:43.037Z,101162.12
2019-03-30T01:43:15.836Z,101166.02
2019-03-30T01:45:48.679Z,101162.56
2019-03-30T01:48:21.307Z,101158.63
2019-03-30T01:50:54.202Z,101163.38
2019-03-30T01:53:26.838Z,101154.64
2019-03-30T01:55:59.916Z,101153.80
2019-03-30T01:58:32.666Z,101155.58
2019-03-30T02:01:05.737Z,101151.65
2019-03-30T02:03:39.755Z,101156.05
2019-03-30T02:06:12.514Z,101151.65
2019-03-30T02:08:45.617Z,101158.66
2019-03-30T02:11:18.374Z,101152.14
2019-03-30T02:13:51.546Z,101155.17
2019-03-30T02:16:24.197Z,101160.88
2019-03-30T02:18:56.980Z,101156.97
2019-03-30T02:21:33.899Z,101159.62
2019-03-30T02:24:06.946Z,101153.51
2019-03-30T02:26:47.887Z,101153.10
2019-03-30T02:29:22.197Z,101154.91
2019-03-30T02:31:55.248Z,101159.27
2019-03-30T02:34:28.371Z,101156.65
2019-03-30T02:37:01.361Z,101155.37
2019-03-30T02:39:34.295Z,101152.78
2019-03-30T02:42:07.252Z,101153.30
2019-03-30T02:44:40.036Z,101147.23
2019-03-30T02:47:12.930Z,101146.35
2019-03-30T02:49:46.483Z,101149.84
2019-03-30T02:52:19.096Z,101155.52
2019-03-30T02:54:51.785Z,101148.59
2019-03-30T02:57:24.580Z,101144.52
2019-03-30T02:59:57.656Z,101145.28
2019-03-30T03:02:30.256Z,101139.58
2019-03-30T03:05:03.097Z,101143.91
2019-03-30T03:07:36.688Z,101139.11
2019-03-30T03:10:10.216Z,101139.95
2019-03-30T03:12:42.951Z,101128.59
2019-03-30T03:15:15.966Z,101134.23
2019-03-30T03:17:48.736Z,101133.39
2019-03-30T03:20:21.461Z,101133.41
2019-03-30T03:22:54.367Z,101132.08
2019-03-30T03:25:27.047Z,101130.30
2019-03-30T03:27:59.909Z,101131.61
2019-03-30T03:30:32.588Z,101132.95
2019-03-30T03:33:05.608Z,101129.08
2019-03-30T03:35:38.213Z,101132.13
2019-03-30T03:38:11.018Z,101132.59
2019-03-30T03:40:43.805Z,101130.45
2019-03-30T03:43:16.733Z,101129.60
2019-03-30T03:45:49.465Z,101132.71
2019-03-30T03:48:22.458Z,101128.44
2019-03-30T03:51:01.768Z,101132.77
2019-03-30T03:53:36.109Z,101131.05
2019-03-30T03:56:10.122Z,101131.05
2019-03-30T03:58:43.909Z,101129.75
2019-03-30T04:01:19.167Z,101125.01
2019-03-30T04:03:54.237Z,101122.39
2019-03-30T04:06:28.387Z,101125.88
2019-03-30T04:09:03.905Z,101125.88
2019-03-30T04:11:38.663Z,101123.75
2019-03-30T04:14:14.454Z,101125.97
2019-03-30T04:16:46.986Z,101124.19
2019-03-30T04:19:19.918Z,101119.83
2019-03-30T04:21:52.669Z,101119.39
2019-03-30T04:24:26.567Z,101128.49
2019-03-30T04:26:59.330Z,101130.67
2019-03-30T04:29:32.159Z,101124.16
2019-03-30T04:32:04.829Z,101125.03
2019-03-30T04:34:37.847Z,101125.84
2019-03-30T04:37:11.917Z,101124.08
2019-03-30T04:39:45.022Z,101126.66
2019-03-30T04:42:18.027Z,101120.97
2019-03-30T04:44:51.007Z,101121.87
2019-03-30T04:47:23.678Z,101117.53
2019-03-30T04:49:56.677Z,101114.54
2019-03-30T04:52:29.325Z,101120.99
2019-03-30T04:55:02.157Z,101121.44
2019-03-30T04:57:34.756Z,101123.17
2019-03-30T05:00:08.322Z,101120.12
2019-03-30T05:02:41.027Z,101124.84
2019-03-30T05:05:14.037Z,101127.83
2019-03-30T05:07:46.858Z,101126.05
2019-03-30T05:10:19.776Z,101125.62
2019-03-30T05:12:52.856Z,101123.88
2019-03-30T05:15:25.667Z,101127.80
2019-03-30T05:18:00.117Z,101125.62
2019-03-30T05:20:32.915Z,101120.41
2019-03-30T05:23:05.895Z,101126.58
2019-03-30T05:25:39.006Z,101123.96
2019-03-30T05:28:11.881Z,101124.34
2019-03-30T05:30:44.597Z,101119.08
2019-03-30T05:33:17.437Z,101117.77
2019-03-30T05:35:50.179Z,101121.29
2019-03-30T05:38:23.192Z,101116.00
2019-03-30T05:40:56.054Z,101112.48
2019-03-30T05:43:29.816Z,101117.21
2019-03-30T05:46:02.765Z,101109.86
2019-03-30T05:48:35.619Z,101123.14
2019-03-30T05:51:08.257Z,101116.56
2019-03-30T05:53:41.065Z,101118.66
2019-03-30T05:56:13.921Z,101116.41
2019-03-30T05:58:47.296Z,101109.44
2019-03-30T06:01:21.280Z,101120.72
2019-03-30T06:03:54.167Z,101115.42
2019-03-30T06:06:26.867Z,101111.93
2019-03-30T06:08:59.797Z,101108.78
2019-03-30T06:11:32.547Z,101117.42
2019-03-30T06:14:05.537Z,101118.60
2019-03-30T06:16:38.418Z,101116.30
2019-03-30T06:19:11.327Z,101113.17
2019-03-30T06:21:44.136Z,101117.48
2019-03-30T06:24:16.917Z,101113.11
2019-03-30T06:26:49.952Z,101112.61
2019-03-30T06:29:23.197Z,101120.06
2019-03-30T06:31:56.015Z,101119.50
2019-03-30T06:34:28.876Z,101119.91
2019-03-30T06:37:01.748Z,101116.81
2019-03-30T06:39:37.039Z,101121.02
2019-03-30T06:42:09.426Z,101117.49
2019-03-30T06:44:42.398Z,101123.88
2019-03-30T06:47:15.243Z,101111.58
2019-03-30T06:49:48.007Z,101113.37
2019-03-30T06:52:20.847Z,101114.95
2019-03-30T06:54:53.787Z,101111.45
2019-03-30T06:57:26.727Z,101106.58
2019-03-30T06:59:59.665Z,101108.16
2019-03-30T07:02:32.467Z,101110.27
2019-03-30T07:05:05.617Z,101101.09
2019-03-30T07:07:40.397Z,101104.89
2019-03-30T07:10:13.476Z,101109.66
2019-03-30T07:12:50.067Z,101109.48
2019-03-30T07:15:23.776Z,101108.88
2019-03-30T07:17:59.657Z,101108.91
2019-03-30T07:20:33.136Z,101114.02
2019-03-30T07:23:11.969Z,101104.36
2019-03-30T07:25:39.837Z,101108.66
2019-03-30T07:28:12.395Z,101100.65
2019-03-30T07:30:45.023Z,101110.34
2019-03-30T07:33:17.597Z,101110.34
2019-03-30T07:35:50.337Z,101113.33
2019-03-30T07:38:22.827Z,101109.39
2019-03-30T07:40:55.778Z,101115.00
2019-03-30T07:43:28.376Z,101113.62
2019-03-30T07:46:01.099Z,101112.70
2019-03-30T07:48:33.735Z,101117.98
2019-03-30T07:51:06.639Z,101123.93
2019-03-30T07:53:44.595Z,101116.75
2019-03-30T07:56:13.644Z,101119.84
2019-03-30T07:58:46.517Z,101115.88
2019-03-30T08:01:19.264Z,101113.25
2019-03-30T08:03:52.289Z,101115.77
2019-03-30T08:06:26.517Z,101113.91
2019-03-30T08:08:59.257Z,101113.21
2019-03-30T08:11:31.937Z,101114.56
2019-03-30T08:14:04.896Z,101110.59
2019-03-30T08:16:38.087Z,101109.13
2019-03-30T08:19:11.341Z,101110.77
2019-03-30T08:21:44.456Z,101111.02
2019-03-30T08:24:17.111Z,101110.87
2019-03-30T08:26:50.087Z,101107.65
2019-03-30T08:29:22.729Z,101109.25
2019-03-30T08:31:55.460Z,101105.34
2019-03-30T08:34:28.467Z,101107.09
2019-03-30T08:37:01.615Z,101108.66
2019-03-30T08:39:35.503Z,101111.55
2019-03-30T08:42:09.547Z,101109.33
2019-03-30T08:44:43.456Z,101109.92
2019-03-30T08:47:16.308Z,101108.58
2019-03-30T08:49:50.758Z,101106.34
2019-03-30T08:52:27.507Z,101110.64
2019-03-30T08:55:00.381Z,101100.91
2019-03-30T08:57:33.268Z,101109.73
2019-03-30T09:00:07.613Z,101108.81
2019-03-30T09:02:41.106Z,101107.86
2019-03-30T09:05:23.597Z,101103.68
2019-03-30T09:07:56.858Z,101103.20
2019-03-30T09:10:32.617Z,101108.28
2019-03-30T09:13:20.477Z,101107.16
2019-03-30T09:16:17.437Z,101104.06
2019-03-30T09:18:50.867Z,101100.78
2019-03-30T09:21:29.310Z,101104.13
2019-03-30T09:24:09.828Z,101098.32
2019-03-30T09:26:43.067Z,101097.18
2019-03-30T09:29:19.810Z,101098.56
2019-03-30T09:32:14.585Z,101094.82
2019-03-30T09:34:44.508Z,101096.05
2019-03-30T09:37:18.740Z,101094.92
2019-03-30T09:39:51.367Z,101098.42
2019-03-30T09:42:25.438Z,101093.56
2019-03-30T09:44:58.537Z,101091.98
2019-03-30T09:47:31.547Z,101087.16
2019-03-30T09:50:04.766Z,101088.12
2019-03-30T09:52:37.554Z,101086.98
2019-03-30T09:55:10.686Z,101092.77
2019-03-30T09:57:43.357Z,101086.36
2019-03-30T10:00:37.357Z,101088.30
2019-03-30T10:03:13.987Z,101085.82
2019-03-30T10:05:48.275Z,101084.67
2019-03-30T10:08:23.537Z,101080.25
2019-03-30T10:10:56.257Z,101086.83
2019-03-30T10:13:29.229Z,101076.65
2019-03-30T10:16:02.028Z,101086.02
2019-03-30T10:18:36.237Z,101080.36
2019-03-30T10:21:11.300Z,101076.01
2019-03-30T10:23:53.839Z,101069.77
2019-03-30T10:26:30.870Z,101073.69
2019-03-30T10:29:05.717Z,101073.29
2019-03-30T10:32:15.300Z,101066.58
2019-03-30T10:37:39.938Z,101063.70
2019-03-30T10:40:14.317Z,101053.19
2019-03-30T10:42:46.818Z,101051.77
2019-03-30T10:45:19.685Z,101050.33
2019-03-30T10:47:52.227Z,101043.20
2019-03-30T10:50:24.919Z,101035.14
2019-03-30T10:52:57.448Z,101028.00
2019-03-30T10:55:30.046Z,101025.73
2019-03-30T10:58:02.801Z,101017.56
2019-03-30T11:00:42.476Z,101019.17
2019-03-30T11:03:15.466Z,101017.84
2019-03-30T11:05:48.087Z,101020.91
2019-03-30T11:08:20.738Z,101007.17
2019-03-30T11:10:53.476Z,101012.30
2019-03-30T11:13:26.009Z,101008.27
2019-03-30T11:15:58.598Z,101004.70
2019-03-30T11:18:31.130Z,101004.84
2019-03-30T11:21:05.057Z,100996.84
2019-03-30T11:23:37.867Z,100993.91
2019-03-30T11:26:10.437Z,100985.47
2019-03-30T11:28:43.176Z,100982.06
2019-03-30T11:31:15.786Z,100987.50
2019-03-30T11:33:48.369Z,100983.00
2019-03-30T11:36:21.039Z,100979.58
2019-03-30T11:38:54.718Z,100979.89
2019-03-30T11:41:27.357Z,100979.83
2019-03-30T11:44:00.026Z,100968.08
2019-03-30T11:46:32.794Z,100969.27
2019-03-30T11:49:05.897Z,100965.88
2019-03-30T11:51:39.886Z,100962.73
2019-03-30T11:54:12.796Z,100956.92
2019-03-30T11:56:57.366Z,100962.05
2019-03-30T11:59:30.342Z,100960.59
2019-03-30T12:02:07.307Z,100956.41
2019-03-30T12:04:42.696Z,100955.84
2019-03-30T12:07:21.116Z,100949.67
2019-03-30T12:09:53.851Z,100942.16
2019-03-30T12:12:37.537Z,100933.66
2019-03-30T12:15:17.066Z,100930.21
2019-03-30T12:17:49.654Z,100932.52
2019-03-30T12:20:22.486Z,100930.11
2019-03-30T12:22:55.141Z,100909.73
2019-03-30T12:25:35.468Z,100916.28
2019-03-30T12:28:19.986Z,100905.48
2019-03-30T12:30:52.588Z,100903.03
2019-03-30T12:33:25.636Z,100902.28
2019-03-30T12:35:58.237Z,100902.68
2019-03-30T12:38:30.758Z,100897.14
2019-03-30T12:41:13.417Z,100894.55
2019-03-30T12:43:45.947Z,100890.52
2019-03-30T12:46:18.444Z,100884.43
2019-03-30T12:48:51.391Z,100885.48
2019-03-30T12:51:46.317Z,100874.30
2019-03-30T12:54:27.835Z,100872.56
2019-03-30T12:57:52.339Z,100871.24
2019-03-30T13:00:34.273Z,100867.64
2019-03-30T13:03:12.697Z,100862.81
2019-03-30T13:05:46.918Z,100866.69
2019-03-30T13:08:25.608Z,100862.57
2019-03-30T13:11:02.138Z,100858.80
2019-03-30T13:14:06.159Z,100849.34
2019-03-30T13:16:43.306Z,100846.02
2019-03-30T13:19:59.545Z,100848.36
2019-03-30T13:22:35.781Z,100845.40
2019-03-30T13:25:08.870Z,100835.23
2019-03-30T13:27:43.149Z,100833.63
2019-03-30T13:30:16.477Z,100827.55
2019-03-30T13:32:49.127Z,100824.90
2019-03-30T13:35:24.598Z,100825.06
2019-03-30T13:38:15.227Z,100813.93
2019-03-30T13:40:49.048Z,100813.06
2019-03-30T13:43:21.918Z,100806.70
2019-03-30T13:45:54.637Z,100809.70
2019-03-30T13:48:27.337Z,100806.67
2019-03-30T13:51:00.049Z,100801.12
2019-03-30T13:53:38.628Z,100791.17
2019-03-30T13:56:17.073Z,100796.30
2019-03-30T13:58:43.951Z,100795.38
2019-03-30T14:01:17.052Z,100790.84
2019-03-30T14:03:49.808Z,100790.93
2019-03-30T14:06:22.397Z,100784.75
2019-03-30T14:08:54.986Z,100775.83
2019-03-30T14:11:27.812Z,100776.14
2019-03-30T14:14:08.869Z,100764.62
2019-03-30T14:16:48.007Z,100769.20
2019-03-30T14:19:27.454Z,100745.31
2019-03-30T14:22:03.057Z,100766.49
2019-03-30T14:24:36.031Z,100760.83
2019-03-30T14:27:11.750Z,100753.67
2019-03-30T14:29:45.149Z,100751.46
2019-03-30T14:32:20.028Z,100746.41
2019-03-30T14:34:53.346Z,100745.70
2019-03-30T14:37:28.796Z,100743.17
2019-03-30T14:40:34.422Z,100740.42
2019-03-30T14:43:25.917Z,100738.56
2019-03-30T14:46:04.924Z,100735.45
2019-03-30T14:49:04.597Z,100728.99
2019-03-30T14:51:45.547Z,100727.12
2019-03-30T14:54:24.347Z,100727.25
2019-03-30T14:57:13.031Z,100719.20
2019-03-30T14:59:50.050Z,100714.69
2019-03-30T15:02:32.399Z,100713.36
2019-03-30T15:05:13.629Z,100712.28
2019-03-30T15:11:17.971Z,100702.94
2019-03-30T15:13:50.757Z,100701.03
2019-03-30T15:17:20.997Z,100698.69
2019-03-30T15:20:32.312Z,100694.41
2019-03-30T15:24:02.337Z,100685.33
2019-03-30T15:26:59.861Z,100675.78
2019-03-30T15:33:26.937Z,100667.16
2019-03-30T15:43:43.288Z,100665.54
2019-03-30T15:47:04.678Z,100658.73
2019-03-30T15:50:38.356Z,100656.52
2019-03-30T15:53:46.231Z,100658.73
2019-03-30T15:55:25.897Z,100669.33
2019-03-30T15:56:34.376Z,100643.66
2019-03-30T15:59:36.547Z,100647.95
2019-03-30T16:10:59.411Z,100633.69
2019-03-30T16:12:32.247Z,100628.68
2019-03-30T16:22:32.826Z,100623.52
2019-03-30T16:25:25.200Z,100580.84
2019-03-30T16:27:59.042Z,100612.82
2019-03-30T16:30:58.967Z,100602.64
2019-03-30T16:33:43.017Z,100604.11
2019-03-30T16:36:38.096Z,100596.33
2019-03-30T16:39:21.446Z,100575.08
2019-03-30T16:41:53.698Z,100592.81
2019-03-30T16:44:51.907Z,100587.38
2019-03-30T16:50:17.737Z,100584.95
2019-03-30T16:52:54.186Z,100588.93
2019-03-30T16:55:29.957Z,100589.15
2019-03-30T16:58:12.408Z,100583.70
2019-03-30T17:00:55.704Z,100579.06
2019-03-30T17:03:16.562Z,100586.77
2019-03-30T17:05:53.238Z,100576.59
2019-03-30T17:08:31.849Z,100583.83
2019-03-30T17:11:04.831Z,100578.08
2019-03-30T17:13:38.777Z,100585.53
2019-03-30T17:16:15.028Z,100581.62
2019-03-30T17:19:07.667Z,100581.27
2019-03-30T17:21:43.767Z,100585.23
2019-03-30T17:24:16.257Z,100583.95
2019-03-30T17:26:48.977Z,100584.30
2019-03-30T17:29:21.467Z,100583.47
2019-03-30T17:31:54.257Z,100582.66
2019-03-30T17:34:26.748Z,100588.48
2019-03-30T17:36:59.298Z,100584.30
2019-03-30T17:39:31.797Z,100587.78
2019-03-30T17:42:04.397Z,100581.12
2019-03-30T17:44:37.186Z,100584.36
2019-03-30T17:47:09.847Z,100585.08
2019-03-30T17:49:42.557Z,100588.36
2019-03-30T17:52:15.437Z,100591.69
2019-03-30T17:54:49.227Z,100586.80
2019-03-30T17:57:21.698Z,100587.11
2019-03-30T17:59:54.298Z,100593.05
2019-03-30T18:02:32.517Z,100587.23
2019-03-30T18:05:11.237Z,100584.44
2019-03-30T18:07:45.386Z,100589.87
2019-03-30T18:10:18.247Z,100587.99
2019-03-30T18:12:51.008Z,100586.05
2019-03-30T18:15:24.210Z,100588.44
2019-03-30T18:17:57.064Z,100587.38
2019-03-30T18:20:29.779Z,100589.36
2019-03-30T18:23:02.558Z,100587.78
2019-03-30T18:25:35.278Z,100580.52
2019-03-30T18:28:07.741Z,100580.20
2019-03-30T18:30:41.388Z,100574.81
2019-03-30T18:33:13.917Z,100573.22
2019-03-30T18:35:46.795Z,100577.78
2019-03-30T18:38:21.957Z,100575.75
2019-03-30T18:40:57.176Z,100574.12
2019-03-30T18:43:30.926Z,100567.38
2019-03-30T18:46:03.442Z,100576.23
2019-03-30T18:48:36.324Z,100571.99
2019-03-30T18:51:09.176Z,100572.83
2019-03-30T18:53:42.816Z,100576.22
2019-03-30T18:56:15.906Z,100577.77
2019-03-30T18:58:48.614Z,100572.34
2019-03-30T19:01:21.314Z,100572.05
2019-03-30T19:03:53.956Z,100571.21
2019-03-30T19:06:26.906Z,100573.09
2019-03-30T19:08:59.676Z,100570.07
2019-03-30T19:11:33.014Z,100577.54
2019-03-30T19:14:06.020Z,100574.59
2019-03-30T19:16:38.786Z,100565.18
2019-03-30T19:19:11.369Z,100567.95
2019-03-30T19:21:45.067Z,100557.27
2019-03-30T19:24:18.544Z,100559.23
2019-03-30T19:26:55.277Z,100558.21
2019-03-30T19:29:28.227Z,100557.27
2019-03-30T19:32:02.095Z,100556.18
2019-03-30T19:34:35.176Z,100549.31
2019-03-30T19:37:07.990Z,100553.78
2019-03-30T19:39:40.806Z,100553.98
2019-03-30T19:42:15.711Z,100554.09
2019-03-30T19:44:48.374Z,100547.66
2019-03-30T19:47:21.116Z,100547.31
2019-03-30T19:49:54.026Z,100544.85
2019-03-30T19:52:39.265Z,100545.39
2019-03-30T19:55:00.906Z,100539.02
2019-03-30T19:57:33.899Z,100539.08
2019-03-30T20:00:07.616Z,100535.69
2019-03-30T20:02:41.648Z,100530.09
2019-03-30T20:05:14.735Z,100530.20
2019-03-30T20:07:47.415Z,100527.62
2019-03-30T20:10:20.719Z,100530.33
2019-03-30T20:12:54.306Z,100524.36
2019-03-30T20:15:27.275Z,100520.59
2019-03-30T20:18:00.258Z,100520.23
2019-03-30T20:20:33.079Z,100520.31
2019-03-30T20:23:06.706Z,100517.32
2019-03-30T20:25:39.520Z,100512.16
2019-03-30T20:28:12.380Z,100513.57
2019-03-30T20:30:45.074Z,100518.88
2019-03-30T20:33:19.200Z,100524.19
2019-03-30T20:35:52.006Z,100519.60
2019-03-30T20:38:24.756Z,100517.55
2019-03-30T20:40:57.480Z,100514.59
2019-03-30T20:43:36.627Z,100506.88
2019-03-30T20:46:09.416Z,100508.75
2019-03-30T20:48:42.997Z,100509.30
2019-03-30T20:51:17.206Z,100506.39
2019-03-30T20:53:50.257Z,100505.23
2019-03-30T20:56:23.235Z,100506.14
2019-03-30T20:58:55.914Z,100503.66
2019-03-30T21:01:28.977Z,100497.27
2019-03-30T21:04:02.098Z,100503.80
2019-03-30T21:06:35.014Z,100503.39
2019-03-30T21:09:09.356Z,100499.55
2019-03-30T21:11:42.396Z,100490.95
2019-03-30T21:14:15.216Z,100489.66
2019-03-30T21:16:49.140Z,100490.16
2019-03-30T21:19:21.817Z,100487.98
2019-03-30T21:21:54.416Z,100494.87
2019-03-30T21:24:26.957Z,100484.08
2019-03-30T21:26:59.647Z,100487.59
2019-03-30T21:29:32.326Z,100490.69
2019-03-30T21:32:05.836Z,100491.22
2019-03-30T21:34:38.826Z,100486.54
2019-03-30T21:37:11.726Z,100486.18
2019-03-30T21:39:44.706Z,100478.48
2019-03-30T21:42:17.287Z,100473.74
2019-03-30T21:44:50.216Z,100468.13
2019-03-30T21:47:22.936Z,100470.73
2019-03-30T21:49:55.617Z,100465.60
2019-03-30T21:52:28.238Z,100463.00
2019-03-30T21:55:01.307Z,100461.23
2019-03-30T21:57:35.006Z,100463.84
2019-03-30T22:00:11.461Z,100459.14
2019-03-30T22:02:44.150Z,100460.97
2019-03-30T22:05:16.757Z,100459.77
2019-03-30T22:07:49.726Z,100458.55
2019-03-30T22:10:29.505Z,100450.46
2019-03-30T22:13:02.726Z,100447.50
2019-03-30T22:15:35.597Z,100453.19
2019-03-30T22:18:08.246Z,100452.81
2019-03-30T22:20:40.743Z,100445.93
2019-03-30T22:23:13.583Z,100454.12
2019-03-30T22:25:46.524Z,100453.69
2019-03-30T22:28:19.384Z,100457.19
2019-03-30T22:30:52.096Z,100458.10
2019-03-30T22:33:24.750Z,100454.23
2019-03-30T22:35:57.506Z,100448.20
2019-03-30T22:38:30.113Z,100448.19
2019-03-30T22:41:02.526Z,100449.05
2019-03-30T22:43:35.176Z,100443.43
2019-03-30T22:46:07.954Z,100443.00
2019-03-30T22:48:40.754Z,100440.83
2019-03-30T22:51:13.314Z,100437.75
2019-03-30T22:53:46.065Z,100430.81
2019-03-30T22:56:19.104Z,100431.72
2019-03-30T22:58:52.586Z,100430.01
2019-03-30T23:01:25.804Z,100431.73
2019-03-30T23:03:58.505Z,100427.36
2019-03-30T23:06:31.146Z,100425.64
2019-03-30T23:09:05.023Z,100424.33
2019-03-30T23:11:37.837Z,100416.47
2019-03-30T23:14:10.298Z,100419.92
2019-03-30T23:16:42.877Z,100419.50
2019-03-30T23:19:15.538Z,100420.35
2019-03-30T23:21:48.233Z,100419.92
2019-03-30T23:24:20.779Z,100416.47
2019-03-30T23:26:53.357Z,100407.39
2019-03-30T23:29:26.014Z,100410.84
2019-03-30T23:31:58.482Z,100409.52
2019-03-30T23:34:30.999Z,100409.52
2019-03-30T23:37:03.594Z,100416.45
2019-03-30T23:39:36.444Z,100413.16
2019-03-30T23:42:08.893Z,100407.24
2019-03-30T23:44:41.534Z,100402.48
2019-03-30T23:47:14.327Z,100401.59
2019-03-30T23:49:46.936Z,100399.89
2019-03-30T23:52:19.340Z,100398.11
2019-03-30T23:54:51.855Z,100394.60
2019-03-30T23:57:24.387Z,100393.73
2019-03-30T23:59:56.975Z,100396.80
